Time;durP1;ratioP1;P1;durP2;ratioP2;P2;SDS_P1;SDS_P2;PMS_P1;PMS_P2;Temp;Humidity;BMP_temperature;BMP_pressure;BME280_temperature;BME280_humidity;BME280_pressure;Samples;Min_cycle;Max_cycle;Signal;HPM_P1;HPM_P2
2021/08/12 05:01:02;;;;;;;30.83;27.58;;;16.30;99.90;;;;;;2620230;54;20406;-77
2021/08/12 05:03:31;;;;;;;28.48;25.50;;;15.40;99.90;;;;;;2620998;46;20057;-77
2021/08/12 05:06:04;;;;;;;24.45;21.95;;;15.40;99.90;;;;;;2620139;46;20058;-77
2021/08/12 05:08:34;;;;;;;;;;;15.40;99.90;;;;;;2620968;46;20053;-78
2021/08/12 05:11:05;;;;;;;28.75;24.92;;;15.30;99.90;;;;;;2620757;46;19942;-77
2021/08/12 05:13:40;;;;;;;24.60;22.20;;;15.40;99.90;;;;;;2620501;46;20074;-77
2021/08/12 05:16:06;;;;;;;25.13;22.83;;;15.30;99.90;;;;;;2620445;31;20417;-77
2021/08/12 05:18:32;;;;;;;25.58;22.88;;;15.30;99.90;;;;;;2619714;54;20027;-79
2021/08/12 05:20:58;;;;;;;23.75;21.42;;;15.30;99.90;;;;;;2620485;46;20057;-77
2021/08/12 05:23:25;;;;;;;25.52;23.00;;;15.40;99.90;;;;;;2620057;46;20026;-78
2021/08/12 05:25:51;;;;;;;26.98;24.27;;;15.40;99.90;;;;;;2620263;46;20030;-77
2021/08/12 05:28:17;;;;;;;28.05;25.20;;;15.40;99.90;;;;;;2619921;54;20032;-78
2021/08/12 05:30:43;;;;;;;26.45;23.75;;;15.40;99.90;;;;;;2619794;46;20029;-77
2021/08/12 05:33:09;;;;;;;28.13;25.30;;;15.50;99.90;;;;;;2620093;46;20033;-78
2021/08/12 05:35:35;;;;;;;26.55;23.70;;;15.50;99.90;;;;;;2620297;38;20313;-78
2021/08/12 05:38:00;;;;;;;25.20;22.58;;;15.60;99.90;;;;;;2620693;46;20106;-78
2021/08/12 05:40:26;;;;;;;24.38;21.73;;;15.60;99.90;;;;;;2620481;46;20563;-78
2021/08/12 05:42:52;;;;;;;23.63;21.42;;;15.70;99.90;;;;;;2620498;46;20038;-78
2021/08/12 05:45:18;;;;;;;23.67;21.38;;;15.70;99.90;;;;;;2620890;46;20022;-77
2021/08/12 05:47:44;;;;;;;25.92;23.38;;;15.70;99.90;;;;;;2619582;46;20490;-77
2021/08/12 05:50:10;;;;;;;24.30;21.42;;;15.70;99.90;;;;;;2620180;46;20054;-77
2021/08/12 05:52:37;;;;;;;25.65;23.25;;;15.70;99.90;;;;;;2620314;46;20472;-78
2021/08/12 05:55:04;;;;;;;24.17;21.50;;;15.70;99.90;;;;;;2620102;46;20054;-78
2021/08/12 05:57:30;;;;;;;29.52;24.33;;;15.70;99.90;;;;;;2619854;46;20046;-78
2021/08/12 05:59:56;;;;;;;25.17;22.38;;;15.70;99.90;;;;;;2620159;46;20034;-77
2021/08/12 06:02:22;;;;;;;24.75;22.05;;;15.70;99.90;;;;;;2620400;46;20121;-77
2021/08/12 06:04:50;;;;;;;25.83;22.88;;;15.70;99.90;;;;;;2619382;46;20030;-78
2021/08/12 06:07:16;;;;;;;26.05;23.25;;;15.80;99.90;;;;;;2619820;46;20038;-79
2021/08/12 06:09:42;;;;;;;26.17;23.52;;;15.80;99.90;;;;;;2619468;46;20145;-77
2021/08/12 06:12:08;;;;;;;27.02;22.95;;;15.90;99.90;;;;;;2616701;46;20038;-79
2021/08/12 06:14:34;;;;;;;27.23;24.48;;;15.90;99.90;;;;;;2616805;47;20483;-79
2021/08/12 06:17:00;;;;;;;25.55;23.05;;;15.90;99.90;;;;;;2617147;46;20035;-79
2021/08/12 06:19:26;;;;;;;25.33;22.65;;;16.00;99.90;;;;;;2617543;39;20093;-79
2021/08/12 06:21:52;;;;;;;26.48;23.80;;;16.10;99.90;;;;;;2616409;46;20078;-79
2021/08/12 06:24:17;;;;;;;26.13;22.05;;;16.30;99.90;;;;;;2616464;47;20472;-80
2021/08/12 06:26:44;;;;;;;26.80;23.23;;;16.40;99.90;;;;;;2616096;47;20069;-80
2021/08/12 06:29:11;;;;;;;25.25;22.23;;;16.50;99.90;;;;;;2617441;46;20070;-79
2021/08/12 06:31:38;;;;;;;24.85;21.40;;;16.50;99.90;;;;;;2616893;47;20037;-80
2021/08/12 06:34:04;;;;;;;22.92;20.55;;;16.60;99.90;;;;;;2616665;46;20030;-81
2021/08/12 06:36:32;;;;;;;24.23;21.40;;;16.70;99.90;;;;;;2616702;46;20038;-79
2021/08/12 06:39:01;;;;;;;23.95;21.42;;;16.80;99.90;;;;;;2616851;39;20341;-80
2021/08/12 06:41:28;;;;;;;24.88;20.92;;;16.90;99.90;;;;;;2618585;31;20412;-81
2021/08/12 06:43:54;;;;;;;26.05;21.50;;;17.00;99.90;;;;;;2617159;47;20031;-82
2021/08/12 06:46:21;;;;;;;24.13;21.70;;;17.10;99.90;;;;;;2617502;46;20057;-80
2021/08/12 06:48:47;;;;;;;21.95;19.65;;;17.20;99.90;;;;;;2616719;46;20126;-81
2021/08/12 06:51:13;;;;;;;21.05;18.90;;;17.30;99.90;;;;;;2617571;47;20034;-80
2021/08/12 06:53:39;;;;;;;20.88;18.65;;;17.40;99.90;;;;;;2616762;46;20074;-81
2021/08/12 06:56:06;;;;;;;23.13;20.63;;;17.40;99.90;;;;;;2617606;39;20335;-80
2021/08/12 06:58:33;;;;;;;21.02;18.92;;;17.50;99.90;;;;;;2617600;46;20026;-82
2021/08/12 07:00:59;;;;;;;21.98;19.02;;;17.60;99.90;;;;;;2616878;46;20029;-81
2021/08/12 07:03:25;;;;;;;21.88;19.73;;;17.60;99.90;;;;;;2618180;46;20131;-82
2021/08/12 07:05:53;;;;;;;21.65;18.50;;;17.70;99.90;;;;;;2619191;39;20336;-82
2021/08/12 07:08:19;;;;;;;22.45;19.83;;;17.80;99.90;;;;;;2618041;39;20339;-82
2021/08/12 07:10:45;;;;;;;22.35;19.88;;;17.80;99.90;;;;;;2617582;47;20030;-82
2021/08/12 07:13:11;;;;;;;22.95;19.05;;;17.80;99.90;;;;;;2617525;46;20022;-82
2021/08/12 07:15:37;;;;;;;22.10;19.58;;;17.90;99.90;;;;;;2618446;46;20499;-82
2021/08/12 07:18:03;;;;;;;21.23;19.02;;;18.00;99.90;;;;;;2619080;46;20033;-82
2021/08/12 07:20:29;;;;;;;24.35;20.83;;;18.10;99.90;;;;;;2618334;54;20023;-82
2021/08/12 07:22:55;;;;;;;19.88;17.77;;;18.10;99.90;;;;;;2616900;46;20065;-82
2021/08/12 07:25:21;;;;;;;20.50;18.42;;;18.30;99.90;;;;;;2617737;46;20028;-82
2021/08/12 07:27:49;;;;;;;21.77;18.65;;;18.30;99.90;;;;;;2617270;46;20026;-81
2021/08/12 07:30:15;;;;;;;23.60;19.52;;;18.40;99.90;;;;;;2618328;47;20026;-82
2021/08/12 07:32:41;;;;;;;23.95;20.10;;;18.50;99.90;;;;;;2617768;46;20030;-82
2021/08/12 07:35:08;;;;;;;21.17;17.30;;;18.60;99.90;;;;;;2617616;46;20027;-82
2021/08/12 07:37:34;;;;;;;20.52;18.40;;;18.80;99.90;;;;;;2617127;46;20026;-81
2021/08/12 07:40:00;;;;;;;21.33;19.05;;;18.80;99.90;;;;;;2617923;46;20490;-82
2021/08/12 07:42:26;;;;;;;24.13;20.42;;;18.90;99.90;;;;;;2617548;46;20038;-84
2021/08/12 07:44:52;;;;;;;18.83;16.85;;;19.10;99.90;;;;;;2618041;46;20022;-82
2021/08/12 07:47:18;;;;;;;18.83;16.90;;;19.20;99.90;;;;;;2617645;46;20531;-81
2021/08/12 07:49:43;;;;;;;19.65;17.33;;;19.30;99.90;;;;;;2617666;47;20223;-83
2021/08/12 07:52:10;;;;;;;21.73;16.90;;;19.40;99.90;;;;;;2617036;46;20085;-80
2021/08/12 07:54:38;;;;;;;17.15;15.23;;;19.50;99.90;;;;;;2616244;47;20455;-81
2021/08/12 07:57:05;;;;;;;18.27;14.50;;;19.60;99.90;;;;;;2616975;47;20498;-81
2021/08/12 07:59:31;;;;;;;18.23;14.40;;;19.70;99.90;;;;;;2616742;47;20030;-81
2021/08/12 08:01:57;;;;;;;14.73;12.52;;;19.70;99.90;;;;;;2616762;46;20030;-79
2021/08/12 08:04:23;;;;;;;14.55;13.05;;;19.80;99.90;;;;;;2617464;47;20031;-80
2021/08/12 08:06:51;;;;;;;14.00;12.48;;;19.90;99.90;;;;;;2617044;47;20037;-82
2021/08/12 08:09:17;;;;;;;19.83;13.00;;;20.00;99.90;;;;;;2617438;54;20031;-82
2021/08/12 08:11:43;;;;;;;12.57;11.27;;;20.10;99.90;;;;;;2617407;46;20027;-82
2021/08/12 08:14:09;;;;;;;16.55;12.32;;;20.20;99.90;;;;;;2616946;47;20110;-83
2021/08/12 08:16:35;;;;;;;14.02;12.55;;;20.30;99.90;;;;;;2616475;47;20022;-81
2021/08/12 08:19:00;;;;;;;15.60;10.75;;;20.40;99.90;;;;;;2616854;47;20037;-81
2021/08/12 08:21:28;;;;;;;13.88;9.65;;;20.50;99.90;;;;;;2616948;46;20042;-82
2021/08/12 08:23:54;;;;;;;13.23;9.43;;;20.50;99.90;;;;;;2616972;46;20035;-80
2021/08/12 08:26:21;;;;;;;15.30;9.77;;;20.60;99.90;;;;;;2616982;47;20041;-83
2021/08/12 08:28:47;;;;;;;10.45;9.35;;;20.70;99.90;;;;;;2616333;47;20472;-82
2021/08/12 08:31:12;;;;;;;13.13;8.68;;;20.70;99.90;;;;;;2616768;54;20069;-83
2021/08/12 08:33:38;;;;;;;11.05;8.73;;;20.90;99.90;;;;;;2616248;47;20030;-83
2021/08/12 08:36:04;;;;;;;9.93;8.43;;;21.00;99.90;;;;;;2616724;54;20031;-84
2021/08/12 08:38:30;;;;;;;11.63;8.98;;;21.10;99.80;;;;;;2617409;47;20042;-82
2021/08/12 08:40:57;;;;;;;10.93;7.88;;;21.20;99.60;;;;;;2617200;46;20126;-85
2021/08/12 08:43:24;;;;;;;10.77;8.15;;;21.30;99.50;;;;;;2617606;47;20046;-82
2021/08/12 08:45:51;;;;;;;10.27;7.40;;;21.30;99.10;;;;;;2616899;46;20030;-83
2021/08/12 08:48:17;;;;;;;9.68;7.78;;;21.30;98.90;;;;;;2616988;54;20086;-82
2021/08/12 08:50:46;;;;;;;9.27;7.78;;;21.40;99.00;;;;;;2616388;47;20038;-82
2021/08/12 08:53:16;;;;;;;10.13;8.70;;;21.50;99.00;;;;;;2616779;39;20369;-83
2021/08/12 08:55:42;;;;;;;9.45;8.43;;;21.60;99.00;;;;;;2616804;47;20034;-83
2021/08/12 08:58:08;;;;;;;10.45;7.72;;;21.80;99.00;;;;;;2616887;47;20058;-82
2021/08/12 09:00:37;;;;;;;10.40;8.55;;;21.80;98.80;;;;;;2616695;47;20077;-83
2021/08/12 09:03:03;;;;;;;12.00;7.93;;;22.00;98.20;;;;;;2617165;47;20596;-83
2021/08/12 09:05:29;;;;;;;8.88;6.90;;;22.00;98.50;;;;;;2617119;47;20034;-84
2021/08/12 09:07:59;;;;;;;10.98;7.30;;;22.10;98.40;;;;;;2617195;47;20031;-84
2021/08/12 09:10:24;;;;;;;9.20;6.20;;;22.20;98.10;;;;;;2617179;47;20033;-84
2021/08/12 09:12:50;;;;;;;8.88;6.95;;;22.30;97.90;;;;;;2616110;47;20134;-85
2021/08/12 09:15:20;;;;;;;9.18;8.02;;;22.40;97.70;;;;;;2616763;47;20064;-85
2021/08/12 09:17:48;;;;;;;8.75;7.22;;;22.40;97.60;;;;;;2615936;47;20023;-82
2021/08/12 09:20:22;;;;;;;8.07;7.30;;;22.50;97.20;;;;;;2616986;47;20744;-83
2021/08/12 09:23:04;;;;;;;11.15;8.38;;;22.60;96.00;;;;;;2616057;47;20465;-82
2021/08/12 09:25:43;;;;;;;7.90;6.70;;;22.70;96.40;;;;;;2617153;47;21419;-81
2021/08/12 09:28:17;;;;;;;14.10;8.93;;;22.80;97.00;;;;;;2616366;47;20165;-80
2021/08/12 09:31:05;;;;;;;9.15;7.50;;;22.90;96.70;;;;;;2616589;47;20031;-82
2021/08/12 09:33:53;;;;;;;11.93;7.72;;;23.00;96.80;;;;;;2616552;47;20022;-82
2021/08/12 09:36:26;;;;;;;10.30;7.63;;;23.10;96.30;;;;;;2616083;54;20141;-84
2021/08/12 09:39:12;;;;;;;12.40;8.90;;;23.20;96.30;;;;;;2616049;47;20031;-80
2021/08/12 09:41:39;;;;;;;12.32;9.00;;;23.30;96.00;;;;;;2616205;47;20050;-82
2021/08/12 09:44:05;;;;;;;9.00;8.15;;;23.40;96.00;;;;;;2616545;47;20030;-83
2021/08/12 09:46:34;;;;;;;11.07;8.75;;;23.50;95.90;;;;;;2617081;47;20114;-82
2021/08/12 09:49:02;;;;;;;9.13;8.18;;;23.50;95.60;;;;;;2616656;47;20468;-82
2021/08/12 09:51:35;;;;;;;9.32;7.68;;;23.50;95.70;;;;;;2617189;46;20030;-83
2021/08/12 09:54:04;;;;;;;11.60;8.38;;;23.70;95.30;;;;;;2617323;39;20321;-83
2021/08/12 09:56:30;;;;;;;10.25;8.23;;;23.70;94.90;;;;;;2616564;47;20049;-82
2021/08/12 09:59:07;;;;;;;11.57;8.75;;;23.80;95.00;;;;;;2616908;39;20359;-82
2021/08/12 10:01:33;;;;;;;9.27;8.15;;;23.90;94.40;;;;;;2616844;46;20042;-86
2021/08/12 10:03:59;;;;;;;11.73;8.93;;;24.00;95.30;;;;;;2616948;47;20026;-86
2021/08/12 10:06:31;;;;;;;11.77;8.00;;;24.10;94.80;;;;;;2617424;54;20149;-84
2021/08/12 10:09:17;;;;;;;8.93;6.93;;;24.20;94.70;;;;;;2616838;54;20078;-88
2021/08/12 10:11:43;;;;;;;9.18;8.23;;;24.20;94.00;;;;;;2616053;46;20022;-87
2021/08/12 10:14:09;;;;;;;8.75;7.28;;;24.30;94.50;;;;;;2617030;46;20038;-85
2021/08/12 10:16:38;;;;;;;15.70;9.40;;;24.30;94.30;;;;;;2617679;46;20026;-82
2021/08/12 10:19:09;;;;;;;10.48;8.15;;;24.40;94.00;;;;;;2617328;46;20022;-82
2021/08/12 10:21:39;;;;;;;10.27;7.80;;;24.50;93.00;;;;;;2616808;47;20482;-82
2021/08/12 10:24:07;;;;;;;13.50;7.32;;;24.40;93.20;;;;;;2616804;47;20034;-83
2021/08/12 10:26:34;;;;;;;8.50;6.10;;;24.60;94.00;;;;;;2617209;46;20097;-83
2021/08/12 10:29:08;;;;;;;7.50;6.43;;;24.70;93.90;;;;;;2617346;54;20034;-82
2021/08/12 10:31:37;;;;;;;5.25;4.63;;;24.80;93.80;;;;;;2617940;47;20641;-87
2021/08/12 10:34:05;;;;;;;5.68;4.63;;;24.90;94.00;;;;;;2618409;46;20022;-84
2021/08/12 10:36:31;;;;;;;7.10;4.93;;;25.00;93.20;;;;;;2618491;47;20022;-86
2021/08/12 10:38:58;;;;;;;8.73;5.38;;;25.10;93.10;;;;;;2616256;47;20064;-84
2021/08/12 10:41:25;;;;;;;6.25;4.65;;;25.10;93.00;;;;;;2616987;47;20034;-88
2021/08/12 10:43:57;;;;;;;6.18;4.88;;;25.10;92.50;;;;;;2616618;46;20031;-83
2021/08/12 10:46:36;;;;;;;4.82;4.10;;;25.20;91.40;;;;;;2616509;46;20109;-85
2021/08/12 10:49:27;;;;;;;3.42;2.95;;;25.20;91.80;;;;;;2617312;46;20026;-85
2021/08/12 10:52:03;;;;;;;3.47;2.92;;;25.30;91.00;;;;;;2616907;47;20487;-83
2021/08/12 10:54:31;;;;;;;5.47;3.10;;;25.40;91.10;;;;;;2617590;46;20047;-84
2021/08/12 10:57:12;;;;;;;5.13;3.40;;;25.40;91.40;;;;;;2616882;46;20036;-83
2021/08/12 10:59:39;;;;;;;6.10;3.63;;;25.50;90.50;;;;;;2617622;46;20026;-86
2021/08/12 11:02:27;;;;;;;5.22;3.45;;;25.60;91.60;;;;;;2616867;47;20031;-84
2021/08/12 11:04:54;;;;;;;4.07;3.38;;;25.70;90.80;;;;;;2617425;46;20030;-86
2021/08/12 11:07:36;;;;;;;4.15;3.20;;;25.70;91.20;;;;;;2617980;46;20050;-83
2021/08/12 11:10:05;;;;;;;;;;;25.80;90.20;;;;;;2618257;46;20022;-85
2021/08/12 11:13:03;;;;;;;4.40;4.00;;;25.90;87.70;;;;;;2619619;46;19943;-83
2021/08/12 11:15:41;;;;;;;5.35;3.72;;;26.00;87.30;;;;;;2616148;46;20031;-85
2021/08/12 11:18:18;;;;;;;4.43;4.03;;;26.00;90.40;;;;;;2617124;47;20030;-87
2021/08/12 11:20:46;;;;;;;3.83;3.30;;;26.00;89.90;;;;;;2616848;46;20056;-82
2021/08/12 11:23:18;;;;;;;4.93;2.95;;;26.00;90.80;;;;;;2618213;47;20058;-82
2021/08/12 11:26:02;;;;;;;4.45;3.58;;;26.10;90.10;;;;;;2617219;46;20030;-85
2021/08/12 11:28:41;;;;;;;5.00;4.07;;;26.20;89.40;;;;;;2617136;47;20530;-82
2021/08/12 11:31:08;;;;;;;4.10;3.28;;;26.30;89.00;;;;;;2617547;47;20030;-85
2021/08/12 11:33:53;;;;;;;6.07;4.25;;;26.40;90.60;;;;;;2616846;47;20041;-81
2021/08/12 11:36:26;;;;;;;3.90;2.55;;;26.50;88.50;;;;;;2616453;46;20031;-83
2021/08/12 11:39:00;;;;;;;3.78;3.05;;;26.50;85.10;;;;;;2616405;54;20030;-84
2021/08/12 11:41:34;;;;;;;3.53;2.92;;;26.50;88.10;;;;;;2616501;46;20151;-84
2021/08/12 11:44:00;;;;;;;4.75;3.75;;;26.70;90.50;;;;;;2618002;47;20148;-83
2021/08/12 11:46:27;;;;;;;6.15;4.68;;;26.90;90.30;;;;;;2618391;47;20111;-83
2021/08/12 11:48:52;;;;;;;6.03;3.83;;;27.00;89.60;;;;;;2618235;47;20030;-80
2021/08/12 11:51:19;;;;;;;6.72;4.88;;;27.00;89.00;;;;;;2618326;54;20057;-83
2021/08/12 11:53:49;;;;;;;5.63;5.10;;;27.10;88.00;;;;;;2617756;46;20035;-84
2021/08/12 11:56:22;;;;;;;4.10;3.70;;;27.10;85.60;;;;;;2616381;46;20030;-83
2021/08/12 11:58:50;;;;;;;4.00;3.60;;;27.20;87.00;;;;;;2616182;54;20130;-85
2021/08/12 12:01:24;;;;;;;6.88;4.05;;;27.20;87.40;;;;;;2617153;46;20042;-84
2021/08/12 12:03:57;;;;;;;12.98;4.82;;;27.30;86.50;;;;;;2617000;47;20061;-84
2021/08/12 12:06:49;;;;;;;3.58;3.28;;;27.40;84.60;;;;;;2616832;46;20030;-82
2021/08/12 12:09:27;;;;;;;4.63;3.08;;;27.50;82.10;;;;;;2616382;47;20031;-82
2021/08/12 12:12:08;;;;;;;4.43;3.97;;;27.60;85.60;;;;;;2616436;46;20029;-80
2021/08/12 12:14:36;;;;;;;5.20;3.53;;;27.60;83.80;;;;;;2616666;46;20054;-80
2021/08/12 12:17:08;;;;;;;5.85;3.80;;;27.60;84.90;;;;;;2617403;47;20026;-84
2021/08/12 12:19:35;;;;;;;5.18;4.03;;;27.70;84.20;;;;;;2615578;47;20033;-85
2021/08/12 12:22:02;;;;;;;6.05;3.28;;;27.70;84.90;;;;;;2615914;46;20030;-85
2021/08/12 12:24:27;;;;;;;3.92;3.53;;;27.80;84.50;;;;;;2616272;47;20022;-86
2021/08/12 12:26:58;;;;;;;6.70;4.05;;;27.80;86.30;;;;;;2615801;46;20103;-81
2021/08/12 12:29:24;;;;;;;5.07;4.22;;;28.00;85.30;;;;;;2616810;46;20024;-81
2021/08/12 12:31:59;;;;;;;4.07;3.35;;;28.00;84.90;;;;;;2616582;47;20052;-80
2021/08/12 12:34:25;;;;;;;6.45;4.63;;;28.10;83.20;;;;;;2617071;46;20022;-84
2021/08/12 12:36:52;;;;;;;6.00;4.40;;;28.10;83.30;;;;;;2616775;54;20897;-85
2021/08/12 12:39:20;;;;;;;6.75;5.57;;;28.10;83.00;;;;;;2617215;47;20067;-84
2021/08/12 12:41:47;;;;;;;5.40;4.57;;;28.00;82.50;;;;;;2616544;46;20022;-83
2021/08/12 12:44:14;;;;;;;5.38;3.55;;;28.10;83.60;;;;;;2616748;47;20074;-85
2021/08/12 12:46:41;;;;;;;8.32;4.65;;;28.10;83.10;;;;;;2615772;47;20037;-84
2021/08/12 12:49:27;;;;;;;5.28;3.92;;;28.00;81.90;;;;;;2616702;47;20031;-81
2021/08/12 12:52:07;;;;;;;5.38;4.38;;;27.80;79.00;;;;;;2617461;39;20413;-84
2021/08/12 12:54:34;;;;;;;6.43;4.72;;;27.80;78.10;;;;;;2617073;47;20540;-82
2021/08/12 12:57:00;;;;;;;6.90;4.55;;;27.90;82.20;;;;;;2615947;47;20472;-88
2021/08/12 12:59:26;;;;;;;7.45;4.22;;;27.90;81.80;;;;;;2616821;47;20068;-85
2021/08/12 13:01:57;;;;;;;6.38;4.85;;;27.80;81.00;;;;;;2616333;47;20035;-83
2021/08/12 13:04:24;;;;;;;4.85;4.22;;;27.60;80.60;;;;;;2616901;47;20033;-85
2021/08/12 13:06:50;;;;;;;7.18;4.50;;;27.60;82.50;;;;;;2616377;47;20532;-83
2021/08/12 13:09:36;;;;;;;4.32;3.92;;;27.80;82.70;;;;;;2616861;47;20049;-83
2021/08/12 13:12:30;;;;;;;4.43;4.13;;;28.00;79.40;;;;;;2615867;47;20457;-80
2021/08/12 13:15:16;;;;;;;5.38;4.88;;;28.10;79.50;;;;;;2616785;39;20640;-80
2021/08/12 13:17:43;;;;;;;4.53;3.90;;;28.10;78.50;;;;;;2616079;47;20039;-82
2021/08/12 13:20:15;;;;;;;3.90;3.50;;;28.20;81.30;;;;;;2616690;47;20026;-84
2021/08/12 13:22:46;;;;;;;5.80;4.10;;;28.20;80.40;;;;;;2617139;46;20070;-85
2021/08/12 13:25:17;;;;;;;4.72;4.10;;;28.30;79.50;;;;;;2616997;47;20058;-84
2021/08/12 13:27:47;;;;;;;6.28;3.63;;;28.30;79.40;;;;;;2616749;46;20106;-80
2021/08/12 13:30:15;;;;;;;3.92;3.45;;;28.30;79.00;;;;;;2617293;46;20026;-84
2021/08/12 13:32:41;;;;;;;5.38;3.70;;;28.20;79.00;;;;;;2616164;47;20029;-84
2021/08/12 13:35:08;;;;;;;4.55;3.05;;;28.20;79.00;;;;;;2617332;39;20376;-83
2021/08/12 13:37:34;;;;;;;5.13;3.38;;;28.20;79.10;;;;;;2616568;46;20122;-82
2021/08/12 13:40:00;;;;;;;3.67;3.45;;;28.20;79.40;;;;;;2617480;47;20029;-84
2021/08/12 13:42:26;;;;;;;6.25;3.83;;;28.20;79.20;;;;;;2617633;46;20031;-84
2021/08/12 13:44:52;;;;;;;3.45;3.08;;;28.30;79.00;;;;;;2616811;46;20481;-84
2021/08/12 13:47:19;;;;;;;4.15;3.08;;;28.30;78.60;;;;;;2617257;47;20057;-82
2021/08/12 13:49:45;;;;;;;3.90;3.40;;;28.20;77.70;;;;;;2616367;47;20652;-80
2021/08/12 13:52:12;;;;;;;3.65;3.00;;;28.30;77.20;;;;;;2617578;46;20029;-80
2021/08/12 13:54:39;;;;;;;5.45;3.40;;;28.30;77.30;;;;;;2616985;46;20022;-79
2021/08/12 13:57:06;;;;;;;3.80;3.17;;;28.30;77.10;;;;;;2616921;54;20030;-84
2021/08/12 13:59:34;;;;;;;3.88;3.22;;;28.50;76.00;;;;;;2616356;47;20038;-77
2021/08/12 14:02:00;;;;;;;3.30;3.00;;;28.50;75.60;;;;;;2617144;46;20041;-83
2021/08/12 14:04:26;;;;;;;4.60;3.25;;;28.50;75.50;;;;;;2617521;39;20344;-82
2021/08/12 14:06:52;;;;;;;5.07;3.40;;;28.60;76.20;;;;;;2616678;47;20464;-84
2021/08/12 14:09:18;;;;;;;7.28;4.07;;;28.60;75.70;;;;;;2617516;47;20029;-81
2021/08/12 14:11:45;;;;;;;5.13;3.03;;;28.60;75.10;;;;;;2617169;46;20033;-83
2021/08/12 14:14:15;;;;;;;4.40;4.00;;;28.50;74.30;;;;;;2618195;47;20038;-86
2021/08/12 14:16:41;;;;;;;5.88;3.83;;;28.40;74.90;;;;;;2617864;47;20039;-85
2021/08/12 14:19:08;;;;;;;4.55;3.60;;;28.30;75.40;;;;;;2619194;46;20125;-85
2021/08/12 14:21:34;;;;;;;5.43;4.30;;;28.20;76.00;;;;;;2620069;39;20462;-81
2021/08/12 14:24:00;;;;;;;5.60;3.20;;;28.20;74.80;;;;;;2620753;39;20354;-81
2021/08/12 14:26:27;;;;;;;5.38;4.82;;;28.00;74.70;;;;;;2618840;46;20022;-87
2021/08/12 14:28:53;;;;;;;4.85;3.60;;;27.90;74.30;;;;;;2618445;46;20023;-85
2021/08/12 14:31:19;;;;;;;5.97;4.80;;;27.80;74.40;;;;;;2618064;47;20034;-85
2021/08/12 14:33:45;;;;;;;5.07;4.68;;;27.70;74.30;;;;;;2616825;47;20031;-82
2021/08/12 14:36:12;;;;;;;6.55;5.93;;;27.60;74.10;;;;;;2618185;46;20047;-88
2021/08/12 14:38:40;;;;;;;6.03;4.90;;;27.50;73.70;;;;;;2616997;47;20022;-82
2021/08/12 14:41:08;;;;;;;5.55;4.82;;;27.30;74.50;;;;;;2616711;47;20508;-86
2021/08/12 14:43:34;;;;;;;5.53;5.03;;;27.20;74.50;;;;;;2618757;39;20344;-83
2021/08/12 14:46:00;;;;;;;6.30;4.80;;;27.20;75.10;;;;;;2618354;46;20037;-82
2021/08/12 14:48:26;;;;;;;7.30;5.65;;;27.10;75.10;;;;;;2617865;47;20033;-88
2021/08/12 14:50:55;;;;;;;12.43;5.45;;;27.10;74.50;;;;;;2616912;46;20022;-85
2021/08/12 14:53:20;;;;;;;5.10;4.55;;;26.90;74.40;;;;;;2617984;47;20033;-86
2021/08/12 14:55:48;;;;;;;5.45;4.95;;;26.70;74.70;;;;;;2617942;46;20038;-82
2021/08/12 14:58:16;;;;;;;10.45;5.22;;;26.60;75.20;;;;;;2617622;46;20030;-85
2021/08/12 15:00:42;;;;;;;6.85;6.22;;;26.50;76.20;;;;;;2617361;46;20038;-84
2021/08/12 15:03:08;;;;;;;7.90;6.82;;;26.40;76.10;;;;;;2617552;39;20230;-85
2021/08/12 15:05:34;;;;;;;7.45;6.70;;;26.30;76.70;;;;;;2616613;46;20479;-86
2021/08/12 15:08:00;;;;;;;6.63;5.93;;;26.20;76.30;;;;;;2619137;47;20023;-83
2021/08/12 15:10:26;;;;;;;5.60;4.95;;;26.20;76.10;;;;;;2621498;46;20034;-82
2021/08/12 15:12:52;;;;;;;6.47;4.20;;;26.20;76.50;;;;;;2619092;46;20034;-84
2021/08/12 15:15:20;;;;;;;6.45;4.25;;;26.30;76.40;;;;;;2619014;46;20034;-85
2021/08/12 15:17:46;;;;;;;4.57;3.33;;;26.40;76.10;;;;;;2619547;46;20034;-85
2021/08/12 15:20:13;;;;;;;4.70;4.30;;;26.50;76.70;;;;;;2618742;47;20023;-81
2021/08/12 15:22:39;;;;;;;4.90;4.20;;;26.60;76.50;;;;;;2618103;46;20038;-87
2021/08/12 15:25:05;;;;;;;4.10;2.65;;;26.70;76.50;;;;;;2618352;47;20034;-83
2021/08/12 15:27:31;;;;;;;3.72;2.10;;;26.80;76.70;;;;;;2618930;54;20063;-85
2021/08/12 15:29:57;;;;;;;3.75;2.60;;;26.80;77.10;;;;;;2621461;47;20030;-84
2021/08/12 15:32:23;;;;;;;4.18;2.20;;;26.80;77.90;;;;;;2621844;47;20053;-87
2021/08/12 15:34:51;;;;;;;2.42;2.08;;;26.80;78.10;;;;;;2619818;54;20027;-86
2021/08/12 15:37:18;;;;;;;4.97;2.03;;;26.70;78.50;;;;;;2618527;47;20037;-82
2021/08/12 15:39:44;;;;;;;2.60;1.70;;;26.70;77.90;;;;;;2617840;47;20030;-79
2021/08/12 15:42:10;;;;;;;2.88;2.17;;;26.70;78.70;;;;;;2619306;46;20034;-86
2021/08/12 15:44:36;;;;;;;1.83;1.58;;;26.80;78.60;;;;;;2621276;46;20045;-85
2021/08/12 15:47:02;;;;;;;2.22;2.03;;;26.80;78.50;;;;;;2621105;46;20035;-84
2021/08/12 15:49:30;;;;;;;2.45;1.50;;;26.80;78.90;;;;;;2619640;47;20494;-84
2021/08/12 15:51:58;;;;;;;2.55;1.52;;;26.90;79.50;;;;;;2621257;47;20046;-85
2021/08/12 15:54:27;;;;;;;3.50;2.25;;;26.90;79.70;;;;;;2618396;46;20122;-83
2021/08/12 15:56:54;;;;;;;1.95;1.85;;;27.10;78.90;;;;;;2618074;46;20463;-83
2021/08/12 15:59:20;;;;;;;1.92;1.65;;;27.10;77.10;;;;;;2616583;47;20022;-85
2021/08/12 16:01:46;;;;;;;3.58;1.48;;;27.10;76.90;;;;;;2616727;46;20030;-86
2021/08/12 16:04:13;;;;;;;2.40;1.42;;;27.10;77.20;;;;;;2616520;47;20023;-83
2021/08/12 16:06:39;;;;;;;3.15;1.35;;;27.10;77.90;;;;;;2616881;46;20026;-85
2021/08/12 16:09:06;;;;;;;1.67;1.58;;;27.10;77.50;;;;;;2616672;39;20317;-79
2021/08/12 16:11:32;;;;;;;2.85;1.98;;;27.00;77.40;;;;;;2616775;46;20036;-84
2021/08/12 16:13:58;;;;;;;3.70;1.83;;;26.80;77.40;;;;;;2616357;46;20046;-85
2021/08/12 16:16:26;;;;;;;2.20;1.75;;;26.80;77.40;;;;;;2616907;47;20478;-85
2021/08/12 16:18:52;;;;;;;2.55;1.27;;;26.60;78.50;;;;;;2615935;46;20030;-84
2021/08/12 16:21:19;;;;;;;3.30;1.88;;;26.50;78.60;;;;;;2616397;46;20023;-84
2021/08/12 16:23:44;;;;;;;2.70;1.50;;;26.50;78.70;;;;;;2615558;54;20049;-84
2021/08/12 16:26:11;;;;;;;3.15;2.88;;;26.50;79.00;;;;;;2616783;46;20460;-81
2021/08/12 16:28:38;;;;;;;3.83;2.70;;;26.40;78.00;;;;;;2616907;47;20034;-86
2021/08/12 16:31:04;;;;;;;7.95;2.70;;;26.30;77.40;;;;;;2616804;47;20498;-82
2021/08/12 16:33:31;;;;;;;2.53;2.33;;;26.10;77.70;;;;;;2616139;47;20026;-81
2021/08/12 16:35:58;;;;;;;3.08;2.65;;;26.00;77.50;;;;;;2616703;47;20026;-82
2021/08/12 16:38:23;;;;;;;3.35;3.05;;;25.90;77.10;;;;;;2616975;47;20105;-84
2021/08/12 16:40:49;;;;;;;5.28;2.97;;;25.90;77.20;;;;;;2616222;47;20105;-84
2021/08/12 16:43:15;;;;;;;4.50;3.72;;;25.80;77.10;;;;;;2616818;54;20026;-83
2021/08/12 16:45:41;;;;;;;7.82;3.05;;;25.70;76.90;;;;;;2615899;47;20133;-81
2021/08/12 16:48:07;;;;;;;3.80;3.28;;;25.60;77.00;;;;;;2616369;47;20037;-85
2021/08/12 16:50:33;;;;;;;7.45;3.10;;;25.50;76.90;;;;;;2617059;47;20031;-82
2021/08/12 16:52:58;;;;;;;6.97;3.95;;;25.40;77.60;;;;;;2616347;47;20052;-87
2021/08/12 16:55:25;;;;;;;5.97;2.70;;;25.30;77.70;;;;;;2616973;47;20150;-83
2021/08/12 16:57:50;;;;;;;3.75;3.38;;;25.20;78.20;;;;;;2616095;47;20023;-84
2021/08/12 17:00:17;;;;;;;4.50;3.00;;;25.10;78.20;;;;;;2616233;47;20029;-82
2021/08/12 17:02:43;;;;;;;3.05;1.83;;;25.00;78.30;;;;;;2616195;47;20022;-83
2021/08/12 17:05:09;;;;;;;4.63;2.88;;;24.90;79.50;;;;;;2616525;47;20054;-82
2021/08/12 17:07:35;;;;;;;2.60;2.10;;;24.80;80.30;;;;;;2617051;39;20341;-83
2021/08/12 17:10:03;;;;;;;4.80;2.42;;;24.80;80.90;;;;;;2616386;47;20022;-84
2021/08/12 17:12:29;;;;;;;7.57;2.08;;;24.70;81.00;;;;;;2616510;47;20033;-83
2021/08/12 17:14:55;;;;;;;3.28;1.77;;;24.60;81.90;;;;;;2616572;47;20023;-84
2021/08/12 17:17:23;;;;;;;4.88;1.83;;;24.50;82.60;;;;;;2616444;47;20038;-83
2021/08/12 17:19:49;;;;;;;4.40;2.40;;;24.40;83.60;;;;;;2615895;47;20027;-83
2021/08/12 17:22:15;;;;;;;4.45;1.70;;;24.30;83.60;;;;;;2615913;51;20023;-86
2021/08/12 17:24:41;;;;;;;4.45;1.80;;;24.20;84.20;;;;;;2615859;39;20394;-83
2021/08/12 17:27:06;;;;;;;3.65;1.80;;;24.10;84.80;;;;;;2615912;54;20023;-84
2021/08/12 17:29:32;;;;;;;2.10;1.20;;;24.00;85.00;;;;;;2616764;47;20029;-86
2021/08/12 17:31:58;;;;;;;5.25;1.98;;;23.90;85.30;;;;;;2616077;47;20023;-85
2021/08/12 17:34:25;;;;;;;2.17;1.50;;;23.80;84.70;;;;;;2616578;47;20023;-84
2021/08/12 17:36:51;;;;;;;2.08;1.73;;;23.80;85.20;;;;;;2615623;47;20038;-86
2021/08/12 17:39:17;;;;;;;3.25;1.20;;;23.70;85.80;;;;;;2617527;31;20354;-83
2021/08/12 17:41:43;;;;;;;3.25;1.77;;;23.60;86.20;;;;;;2616642;39;20684;-85
2021/08/12 17:44:09;;;;;;;3.28;1.95;;;23.60;86.50;;;;;;2615877;54;20030;-85
2021/08/12 17:46:35;;;;;;;2.72;2.20;;;23.50;86.70;;;;;;2616248;47;20026;-85